createdAt,value
2022-08-27T00:01:08.775Z,10.60
2022-08-27T00:03:58.786Z,12.17
2022-08-27T00:06:46.112Z,11.03
2022-08-27T00:09:33.044Z,11.27
2022-08-27T00:12:19.701Z,12.07
2022-08-27T00:15:08.459Z,12.23
2022-08-27T00:17:58.971Z,12.40
2022-08-27T00:20:45.385Z,12.40
2022-08-27T00:23:31.938Z,12.10
2022-08-27T00:26:18.852Z,11.97
2022-08-27T00:29:06.317Z,11.53
2022-08-27T00:31:54.225Z,11.90
2022-08-27T00:34:42.236Z,11.70
2022-08-27T00:37:28.905Z,10.70
2022-08-27T00:40:20.924Z,11.60
2022-08-27T00:43:08.109Z,11.47
2022-08-27T00:45:59.752Z,10.57
2022-08-27T00:48:47.030Z,10.87
2022-08-27T00:51:37.112Z,11.10
2022-08-27T00:54:23.865Z,11.10
2022-08-27T00:57:10.459Z,11.10
2022-08-27T00:59:57.491Z,10.83
2022-08-27T01:02:46.590Z,10.20
2022-08-27T01:05:34.417Z,10.90
2022-08-27T01:08:25.701Z,10.40
2022-08-27T01:11:12.710Z,9.90
2022-08-27T01:14:01.281Z,9.33
2022-08-27T01:16:54.326Z,10.73
2022-08-27T01:19:45.512Z,10.50
2022-08-27T01:22:42.876Z,9.50
2022-08-27T01:25:31.831Z,9.70
2022-08-27T01:28:21.779Z,10.40
2022-08-27T01:31:13.496Z,10.27
2022-08-27T01:34:03.495Z,9.80
2022-08-27T01:36:50.108Z,8.77
2022-08-27T01:39:43.069Z,9.40
2022-08-27T01:42:36.091Z,9.87
2022-08-27T01:45:25.705Z,10.07
2022-08-27T01:48:12.864Z,9.30
2022-08-27T01:50:59.456Z,9.97
2022-08-27T01:53:46.381Z,9.40
2022-08-27T01:56:32.851Z,9.50
2022-08-27T01:59:20.760Z,10.27
2022-08-27T02:02:08.420Z,9.50
2022-08-27T02:04:55.361Z,10.10
2022-08-27T02:07:42.149Z,9.70
2022-08-27T02:10:32.054Z,9.43
2022-08-27T02:13:19.575Z,9.80
2022-08-27T02:16:07.713Z,9.97
2022-08-27T02:18:54.618Z,9.67
2022-08-27T02:21:42.489Z,9.63
2022-08-27T02:24:29.370Z,10.03
2022-08-27T02:27:15.768Z,9.30
2022-08-27T02:30:02.335Z,10.73
2022-08-27T02:32:52.393Z,9.47
2022-08-27T02:35:40.599Z,9.73
2022-08-27T02:38:27.432Z,9.60
2022-08-27T02:41:14.317Z,9.20
2022-08-27T02:44:01.403Z,9.80
2022-08-27T02:46:48.743Z,10.50
2022-08-27T02:49:39.885Z,9.10
2022-08-27T02:52:29.539Z,9.60
2022-08-27T02:55:17.066Z,8.97
2022-08-27T02:58:04.657Z,9.60
2022-08-27T03:00:51.387Z,9.60
2022-08-27T03:03:37.781Z,9.20
2022-08-27T03:06:27.743Z,10.23
2022-08-27T03:09:14.400Z,10.70
2022-08-27T03:12:01.685Z,10.00
2022-08-27T03:14:49.197Z,9.50
2022-08-27T03:17:53.151Z,10.30
2022-08-27T03:20:42.527Z,10.10
2022-08-27T03:23:33.297Z,10.67
2022-08-27T03:26:20.786Z,10.00
2022-08-27T03:29:07.646Z,10.27
2022-08-27T03:31:54.263Z,9.23
2022-08-27T03:34:40.594Z,9.60
2022-08-27T03:37:28.073Z,9.60
2022-08-27T03:40:16.956Z,9.47
2022-08-27T03:43:03.666Z,8.83
2022-08-27T03:46:01.742Z,9.70
2022-08-27T03:48:52.234Z,9.47
2022-08-27T03:51:44.353Z,10.27
2022-08-27T03:54:31.207Z,9.73
2022-08-27T03:57:19.306Z,9.33
2022-08-27T04:00:07.685Z,9.80
2022-08-27T04:02:55.880Z,9.97
2022-08-27T04:05:45.224Z,9.60
2022-08-27T04:08:32.264Z,9.57
2022-08-27T04:11:18.950Z,9.97
2022-08-27T04:14:19.873Z,9.63
2022-08-27T04:17:13.679Z,9.80
2022-08-27T04:20:08.697Z,9.53
2022-08-27T04:23:07.184Z,9.50
2022-08-27T04:25:53.914Z,10.03
2022-08-27T04:28:40.350Z,10.00
2022-08-27T04:31:28.464Z,11.57
2022-08-27T04:34:15.188Z,10.00
2022-08-27T04:37:01.905Z,10.40
2022-08-27T04:39:50.312Z,9.93
2022-08-27T04:42:37.104Z,9.67
2022-08-27T04:45:23.539Z,11.43
2022-08-27T04:48:12.051Z,10.47
2022-08-27T04:50:58.886Z,9.90
2022-08-27T04:53:45.706Z,11.80
2022-08-27T04:56:32.245Z,9.93
2022-08-27T04:59:19.142Z,11.33
2022-08-27T05:02:09.282Z,12.37
2022-08-27T05:04:57.379Z,10.57
2022-08-27T05:07:44.185Z,11.97
2022-08-27T05:10:30.758Z,11.27
2022-08-27T05:13:18.688Z,12.57
2022-08-27T05:16:08.042Z,10.80
2022-08-27T05:18:54.685Z,10.70
2022-08-27T05:21:48.695Z,11.00
2022-08-27T05:24:35.370Z,11.03
2022-08-27T05:27:21.895Z,11.83
2022-08-27T05:30:09.359Z,13.00
2022-08-27T05:32:55.929Z,11.53
2022-08-27T05:35:42.663Z,10.50
2022-08-27T05:38:31.530Z,10.13
2022-08-27T05:41:20.429Z,10.43
2022-08-27T05:44:37.148Z,10.40
2022-08-27T05:47:17.035Z,9.60
2022-08-27T05:50:04.295Z,10.43
2022-08-27T05:52:52.773Z,11.10
2022-08-27T05:55:42.294Z,10.13
2022-08-27T05:58:46.314Z,10.40
2022-08-27T06:01:35.653Z,9.50
2022-08-27T06:04:25.038Z,9.40
2022-08-27T06:07:12.057Z,9.40
2022-08-27T06:09:59.187Z,10.00
2022-08-27T06:12:48.278Z,9.97
2022-08-27T06:15:35.093Z,9.40
2022-08-27T06:18:22.260Z,10.20
2022-08-27T06:21:09.317Z,10.67
2022-08-27T06:23:56.276Z,9.70
2022-08-27T06:26:44.648Z,10.43
2022-08-27T06:29:35.264Z,9.30
2022-08-27T06:32:21.752Z,10.57
2022-08-27T06:35:08.758Z,9.87
2022-08-27T06:37:55.762Z,9.07
2022-08-27T06:40:42.974Z,8.73
2022-08-27T06:43:29.496Z,9.30
2022-08-27T06:46:18.899Z,8.93
2022-08-27T06:49:06.196Z,9.10
2022-08-27T06:51:52.818Z,8.80
2022-08-27T06:54:40.255Z,9.40
2022-08-27T06:57:27.120Z,9.63
2022-08-27T07:00:14.471Z,8.70
2022-08-27T07:03:05.193Z,8.10
2022-08-27T07:05:51.689Z,9.03
2022-08-27T07:08:38.449Z,7.93
2022-08-27T07:11:26.318Z,8.10
2022-08-27T07:14:13.021Z,8.70
2022-08-27T07:16:59.609Z,8.33
2022-08-27T07:19:47.478Z,8.10
2022-08-27T07:22:34.550Z,8.60
2022-08-27T07:25:21.874Z,8.40
2022-08-27T07:28:08.850Z,9.27
2022-08-27T07:30:55.811Z,9.40
2022-08-27T07:33:51.455Z,8.37
2022-08-27T07:36:56.834Z,7.43
2022-08-27T07:39:44.233Z,8.03
2022-08-27T07:42:48.743Z,8.33
2022-08-27T07:45:36.044Z,7.83
2022-08-27T07:48:23.188Z,8.10
2022-08-27T07:51:14.833Z,7.93
2022-08-27T07:54:02.912Z,7.37
2022-08-27T07:56:54.665Z,7.40
2022-08-27T07:59:42.594Z,7.07
2022-08-27T08:02:30.950Z,7.13
2022-08-27T08:05:17.860Z,7.80
2022-08-27T08:08:05.021Z,6.97
2022-08-27T08:10:53.921Z,7.00
2022-08-27T08:13:40.786Z,6.40
2022-08-27T08:16:31.586Z,6.03
2022-08-27T08:19:21.462Z,5.67
2022-08-27T08:22:08.156Z,7.00
2022-08-27T08:24:55.385Z,6.53
2022-08-27T08:27:43.618Z,5.93
2022-08-27T08:30:31.347Z,5.80
2022-08-27T08:33:22.733Z,5.50
2022-08-27T08:36:11.602Z,5.93
2022-08-27T08:38:58.927Z,6.03
2022-08-27T08:41:51.483Z,5.63
2022-08-27T08:44:45.392Z,5.77
2022-08-27T08:47:43.179Z,5.43
2022-08-27T08:50:35.376Z,5.73
2022-08-27T08:53:34.372Z,5.20
2022-08-27T08:56:26.643Z,5.70
2022-08-27T08:59:19.141Z,6.03
2022-08-27T09:02:13.139Z,5.70
2022-08-27T09:05:06.582Z,5.20
2022-08-27T09:08:21.335Z,5.10
2022-08-27T09:11:14.364Z,5.97
2022-08-27T09:14:07.542Z,5.73
2022-08-27T09:17:00.355Z,6.00
2022-08-27T09:19:52.343Z,6.50
2022-08-27T09:22:48.857Z,5.47
2022-08-27T09:25:38.093Z,6.50
2022-08-27T09:28:45.457Z,5.70
2022-08-27T09:31:36.482Z,5.60
2022-08-27T09:34:25.684Z,5.40
2022-08-27T09:37:16.757Z,5.23
2022-08-27T09:40:13.239Z,5.50
2022-08-27T09:43:08.994Z,5.50
2022-08-27T09:45:58.302Z,5.70
2022-08-27T09:48:45.360Z,5.30
2022-08-27T09:51:32.527Z,5.30
2022-08-27T09:54:37.779Z,5.40
2022-08-27T09:57:35.899Z,6.20
2022-08-27T10:00:33.708Z,4.93
2022-08-27T10:03:23.679Z,5.40
2022-08-27T10:06:11.563Z,5.13
2022-08-27T10:09:07.146Z,6.23
2022-08-27T10:12:07.683Z,5.63
2022-08-27T10:14:58.733Z,5.37
2022-08-27T10:17:56.081Z,5.53
2022-08-27T10:20:48.296Z,5.30
2022-08-27T10:23:42.822Z,5.63
2022-08-27T10:26:34.895Z,5.20
2022-08-27T10:29:34.691Z,5.40
2022-08-27T10:32:36.048Z,4.93
2022-08-27T10:35:26.279Z,5.70
2022-08-27T10:38:20.010Z,5.10
2022-08-27T10:41:17.463Z,5.40
2022-08-27T10:44:27.821Z,6.00
2022-08-27T10:47:30.725Z,5.23
2022-08-27T10:50:27.217Z,5.77
2022-08-27T10:53:24.389Z,5.30
2022-08-27T10:56:17.546Z,5.60
2022-08-27T10:59:17.441Z,5.77
2022-08-27T11:02:13.830Z,4.80
2022-08-27T11:05:04.172Z,5.10
2022-08-27T11:07:54.642Z,4.93
2022-08-27T11:10:46.376Z,4.50
2022-08-27T11:13:37.355Z,5.47
2022-08-27T11:16:28.179Z,4.63
2022-08-27T11:19:24.003Z,4.20
2022-08-27T11:22:25.959Z,4.63
2022-08-27T11:25:31.341Z,4.17
2022-08-27T11:28:21.007Z,4.70
2022-08-27T11:31:22.001Z,4.27
2022-08-27T11:34:18.230Z,4.30
2022-08-27T11:37:45.377Z,4.47
2022-08-27T11:41:01.184Z,4.20
2022-08-27T11:43:47.998Z,4.17
2022-08-27T11:46:46.249Z,4.20
2022-08-27T11:49:42.272Z,4.53
2022-08-27T11:52:35.998Z,4.00
2022-08-27T11:55:28.456Z,4.20
2022-08-27T11:58:32.986Z,4.50
2022-08-27T12:01:26.895Z,3.90
2022-08-27T12:04:33.488Z,4.30
2022-08-27T12:07:34.429Z,3.53
2022-08-27T12:10:40.027Z,4.40
2022-08-27T12:13:39.038Z,4.27
2022-08-27T12:16:35.318Z,4.47
2022-08-27T12:19:33.251Z,4.50
2022-08-27T12:22:55.187Z,4.67
2022-08-27T12:25:43.621Z,4.50
2022-08-27T12:28:30.369Z,4.83
2022-08-27T12:31:20.622Z,5.10
2022-08-27T12:34:07.269Z,4.40
2022-08-27T12:36:56.431Z,4.40
2022-08-27T12:39:49.335Z,4.60
2022-08-27T12:42:37.449Z,4.60
2022-08-27T12:45:26.678Z,4.57
2022-08-27T12:48:13.572Z,4.90
2022-08-27T12:51:05.027Z,5.00
2022-08-27T12:53:56.149Z,4.40
2022-08-27T12:56:56.897Z,4.13
2022-08-27T13:00:04.475Z,4.53
2022-08-27T13:03:11.607Z,4.23
2022-08-27T13:06:00.853Z,4.40
2022-08-27T13:08:48.013Z,5.27
2022-08-27T13:11:46.802Z,4.50
2022-08-27T13:14:39.051Z,4.27
2022-08-27T13:17:27.729Z,4.83
2022-08-27T13:20:18.435Z,5.00
2022-08-27T13:23:05.070Z,5.77
2022-08-27T13:25:57.382Z,4.83
2022-08-27T13:28:44.427Z,4.83
2022-08-27T13:31:31.800Z,5.50
2022-08-27T13:34:22.864Z,4.95
2022-08-27T13:37:24.238Z,5.40
2022-08-27T13:40:11.852Z,4.63
2022-08-27T13:43:19.369Z,5.43
2022-08-27T13:46:12.431Z,5.17
2022-08-27T13:49:00.114Z,5.23
2022-08-27T13:51:49.242Z,5.23
2022-08-27T13:54:35.060Z,5.60
2022-08-27T13:57:27.199Z,5.73
2022-08-27T14:00:18.573Z,5.73
2022-08-27T14:03:05.539Z,6.23
2022-08-27T14:05:52.699Z,5.47
2022-08-27T14:08:40.877Z,5.70
2022-08-27T14:11:28.347Z,5.80
2022-08-27T14:14:15.684Z,5.90
2022-08-27T14:17:04.525Z,5.80
2022-08-27T14:19:52.194Z,5.93
2022-08-27T14:22:38.881Z,5.17
2022-08-27T14:25:27.000Z,5.43
2022-08-27T14:28:13.826Z,5.80
2022-08-27T14:31:00.353Z,6.10
2022-08-27T14:33:47.617Z,6.00
2022-08-27T14:36:37.412Z,6.00
2022-08-27T14:39:26.490Z,5.30
2022-08-27T14:42:17.458Z,5.37
2022-08-27T14:45:04.227Z,5.27
2022-08-27T14:47:51.253Z,5.93
2022-08-27T14:50:38.872Z,5.83
2022-08-27T14:53:25.509Z,5.53
2022-08-27T14:56:12.317Z,5.30
2022-08-27T14:59:00.480Z,5.03
2022-08-27T15:01:47.265Z,5.70
2022-08-27T15:04:34.290Z,4.90
2022-08-27T15:07:20.956Z,5.10
2022-08-27T15:10:11.024Z,5.03
2022-08-27T15:12:58.373Z,5.30
2022-08-27T15:15:46.608Z,4.43
2022-08-27T15:18:33.087Z,4.57
2022-08-27T15:21:19.946Z,4.97
2022-08-27T15:24:14.206Z,4.80
2022-08-27T15:27:01.118Z,4.70
2022-08-27T15:29:48.062Z,4.73
2022-08-27T15:32:39.365Z,5.20
2022-08-27T15:35:28.399Z,4.50
2022-08-27T15:38:15.136Z,4.80
2022-08-27T15:41:01.958Z,5.37
2022-08-27T15:43:48.501Z,5.40
2022-08-27T15:46:34.943Z,5.07
2022-08-27T15:49:23.218Z,4.47
2022-08-27T15:52:11.165Z,5.30
2022-08-27T15:55:03.293Z,5.00
2022-08-27T15:57:50.160Z,5.50
2022-08-27T16:00:38.286Z,4.80
2022-08-27T16:03:28.149Z,5.33
2022-08-27T16:06:24.716Z,5.57
2022-08-27T16:09:11.752Z,4.73
2022-08-27T16:11:58.475Z,5.70
2022-08-27T16:14:45.005Z,4.97
2022-08-27T16:17:33.817Z,5.30
2022-08-27T16:20:21.654Z,5.50
2022-08-27T16:23:09.604Z,5.20
2022-08-27T16:25:57.326Z,5.57
2022-08-27T16:28:44.696Z,5.07
2022-08-27T16:31:32.761Z,5.10
2022-08-27T16:34:24.136Z,5.10
2022-08-27T16:37:10.831Z,6.50
2022-08-27T16:39:59.085Z,5.13
2022-08-27T16:42:48.453Z,5.70
2022-08-27T16:45:34.913Z,6.10
2022-08-27T16:48:40.085Z,5.53
2022-08-27T16:51:30.090Z,5.60
2022-08-27T16:54:21.452Z,5.00
2022-08-27T16:57:09.248Z,6.10
2022-08-27T16:59:56.328Z,4.80
2022-08-27T17:02:43.121Z,5.90
2022-08-27T17:05:34.160Z,5.43
2022-08-27T17:08:26.066Z,4.77
2022-08-27T17:11:14.786Z,5.47
2022-08-27T17:14:04.599Z,6.13
2022-08-27T17:16:53.958Z,6.37
2022-08-27T17:19:41.063Z,6.47
2022-08-27T17:22:27.837Z,7.83
2022-08-27T17:25:14.352Z,6.77
2022-08-27T17:28:01.046Z,7.80
2022-08-27T17:30:49.462Z,6.00
2022-08-27T17:33:40.074Z,6.23
2022-08-27T17:36:27.114Z,6.80
2022-08-27T17:39:14.872Z,6.77
2022-08-27T17:42:01.570Z,6.60
2022-08-27T17:44:48.877Z,6.93
2022-08-27T17:47:36.615Z,6.40
2022-08-27T17:50:23.240Z,6.40
2022-08-27T17:53:10.561Z,6.03
2022-08-27T17:55:57.285Z,5.20
2022-08-27T17:58:43.834Z,5.97
2022-08-27T18:01:32.957Z,5.70
2022-08-27T18:04:21.664Z,5.67
2022-08-27T18:07:08.121Z,5.20
2022-08-27T18:09:55.350Z,5.53
2022-08-27T18:12:42.989Z,5.43
2022-08-27T18:15:32.133Z,5.37
2022-08-27T18:18:18.722Z,5.07
2022-08-27T18:21:06.739Z,4.30
2022-08-27T18:23:54.553Z,4.40
2022-08-27T18:26:41.594Z,4.37
2022-08-27T18:29:28.087Z,4.07
2022-08-27T18:32:17.334Z,3.87
2022-08-27T18:35:10.934Z,4.30
2022-08-27T18:37:59.296Z,4.23
2022-08-27T18:40:49.958Z,4.43
2022-08-27T18:43:39.653Z,4.50
2022-08-27T18:46:26.246Z,4.63
2022-08-27T18:49:13.136Z,4.20
2022-08-27T18:52:00.535Z,4.20
2022-08-27T18:54:48.349Z,4.03
2022-08-27T18:57:34.969Z,3.93
2022-08-27T19:00:22.584Z,4.60
2022-08-27T19:03:10.442Z,4.43
2022-08-27T19:05:57.267Z,4.27
2022-08-27T19:08:47.832Z,3.83
2022-08-27T19:11:35.875Z,3.57
2022-08-27T19:14:22.670Z,4.37
2022-08-27T19:17:11.774Z,4.20
2022-08-27T19:19:58.902Z,4.20
2022-08-27T19:22:45.404Z,3.90
2022-08-27T19:25:32.308Z,3.97
2022-08-27T19:28:25.029Z,3.50
2022-08-27T19:31:11.925Z,4.30
2022-08-27T19:34:00.260Z,3.60
2022-08-27T19:36:46.888Z,4.70
2022-08-27T19:39:34.351Z,3.70
2022-08-27T19:42:20.960Z,4.17
2022-08-27T19:45:10.297Z,4.07
2022-08-27T19:47:56.814Z,4.13
2022-08-27T19:50:43.293Z,3.73
2022-08-27T19:53:30.163Z,4.40
2022-08-27T19:56:17.417Z,3.90
2022-08-27T19:59:20.114Z,3.70
2022-08-27T20:02:10.281Z,3.90
2022-08-27T20:05:16.915Z,3.90
2022-08-27T20:08:04.831Z,4.17
2022-08-27T20:10:51.718Z,3.93
2022-08-27T20:13:38.484Z,3.53
2022-08-27T20:16:37.490Z,4.07
2022-08-27T20:19:25.840Z,3.63
2022-08-27T20:22:12.601Z,3.97
2022-08-27T20:24:59.102Z,3.60
2022-08-27T20:27:46.093Z,3.40
2022-08-27T20:30:32.850Z,3.70
2022-08-27T20:33:19.569Z,3.60
2022-08-27T20:36:09.177Z,4.50
2022-08-27T20:38:56.043Z,4.10
2022-08-27T20:41:42.710Z,3.60
2022-08-27T20:44:31.542Z,3.03
2022-08-27T20:47:19.863Z,3.50
2022-08-27T20:50:07.631Z,3.83
2022-08-27T20:52:55.757Z,3.90
2022-08-27T20:55:42.602Z,3.80
2022-08-27T20:58:46.479Z,3.83
2022-08-27T21:01:33.227Z,3.60
2022-08-27T21:04:19.923Z,3.77
2022-08-27T21:07:06.863Z,3.43
2022-08-27T21:09:57.215Z,3.80
2022-08-27T21:12:44.677Z,3.40
2022-08-27T21:15:31.432Z,3.77
2022-08-27T21:18:19.354Z,3.20
2022-08-27T21:21:08.849Z,3.63
2022-08-27T21:23:55.210Z,3.63
2022-08-27T21:26:43.120Z,3.50
2022-08-27T21:29:29.838Z,3.30
2022-08-27T21:32:17.359Z,3.47
2022-08-27T21:35:03.728Z,3.53
2022-08-27T21:37:50.600Z,3.60
2022-08-27T21:40:37.528Z,3.70
2022-08-27T21:43:25.973Z,3.50
2022-08-27T21:46:12.833Z,3.97
2022-08-27T21:48:59.677Z,4.00
2022-08-27T21:51:46.062Z,3.80
2022-08-27T21:54:33.770Z,4.10
2022-08-27T21:57:20.388Z,4.00
2022-08-27T22:00:22.521Z,3.77
2022-08-27T22:03:11.230Z,3.77
2022-08-27T22:05:57.865Z,3.37
2022-08-27T22:08:44.290Z,3.87
2022-08-27T22:11:31.167Z,3.70
2022-08-27T22:14:18.109Z,3.53
2022-08-27T22:17:06.254Z,3.77
2022-08-27T22:19:52.564Z,3.17
2022-08-27T22:22:38.977Z,4.00
2022-08-27T22:25:26.366Z,3.57
2022-08-27T22:28:13.323Z,4.10
2022-08-27T22:31:00.030Z,3.70
2022-08-27T22:33:48.284Z,3.47
2022-08-27T22:36:36.117Z,4.00
2022-08-27T22:39:23.081Z,3.50
2022-08-27T22:42:12.991Z,3.60
2022-08-27T22:45:04.066Z,3.50
2022-08-27T22:47:51.150Z,3.50
2022-08-27T22:50:38.997Z,3.60
2022-08-27T22:53:25.871Z,3.70
2022-08-27T22:56:12.263Z,4.00
2022-08-27T22:58:58.670Z,3.30
2022-08-27T23:01:45.060Z,3.50
2022-08-27T23:04:53.509Z,3.23
2022-08-27T23:07:40.127Z,3.80
2022-08-27T23:10:27.466Z,3.40
2022-08-27T23:13:14.261Z,2.87
2022-08-27T23:16:01.787Z,3.53
2022-08-27T23:18:48.494Z,3.10
2022-08-27T23:21:35.301Z,3.17
2022-08-27T23:24:23.419Z,3.90
2022-08-27T23:27:27.420Z,3.20
2022-08-27T23:30:14.798Z,3.43
2022-08-27T23:33:01.261Z,3.77
2022-08-27T23:35:48.357Z,3.07
2022-08-27T23:38:35.131Z,3.50
2022-08-27T23:41:23.528Z,3.60
2022-08-27T23:44:10.743Z,3.40
2022-08-27T23:46:57.162Z,4.03
2022-08-27T23:49:44.246Z,3.53
2022-08-27T23:52:30.986Z,3.50
2022-08-27T23:55:17.349Z,3.80
2022-08-27T23:58:06.870Z,3.10
